Terminal Aerodrome Forecast
Issued by NWS Corpus Christi, TX

Home | Current Version | Previous Version | Text Only | Print | Product List | Glossary On
Versions: 1 2 3 4 5 6 7 8 9 10 11 12 13
000
FTUS44 KCRP 281720
TAFVCT
TAF
KVCT 281720Z 2818/2918 16013G18KT P6SM FEW040
     FM290000 14011KT P6SM FEW015
     FM290700 17003KT 4SM BR SCT015
      TEMPO 2909/2913 2SM BR BKN015
     FM291300 16006KT P6SM SCT020=

USA.gov is the U.S. government's official web portal to all federal, state and local government web resources and services.